createdAt,value
2022-12-09T00:01:05.747Z,86.75
2022-12-09T00:03:33.394Z,84.94
2022-12-09T00:06:01.412Z,84.95
2022-12-09T00:08:29.054Z,85.83
2022-12-09T00:10:56.738Z,85.49
2022-12-09T00:13:24.129Z,84.75
2022-12-09T00:15:52.977Z,85.96
2022-12-09T00:18:20.419Z,85.58
2022-12-09T00:20:47.992Z,85.56
2022-12-09T00:23:15.478Z,85.09
2022-12-09T00:25:42.920Z,84.27
2022-12-09T00:28:10.324Z,84.76
2022-12-09T00:30:37.799Z,85.53
2022-12-09T00:33:06.520Z,84.67
2022-12-09T00:35:33.975Z,86.39
2022-12-09T00:38:01.434Z,85.08
2022-12-09T00:40:28.915Z,85.07
2022-12-09T00:42:56.358Z,85.91
2022-12-09T00:45:24.077Z,86.96
2022-12-09T00:47:51.729Z,86.42
2022-12-09T00:50:20.611Z,86.51
2022-12-09T00:52:48.044Z,86.00
2022-12-09T00:55:15.623Z,85.05
2022-12-09T00:57:43.249Z,85.98
2022-12-09T01:00:12.318Z,85.67
2022-12-09T01:02:40.025Z,85.16
2022-12-09T01:05:08.089Z,86.73
2022-12-09T01:07:37.716Z,87.14
2022-12-09T01:10:06.397Z,86.23
2022-12-09T01:12:34.558Z,85.08
2022-12-09T01:15:02.158Z,85.08
2022-12-09T01:17:29.697Z,85.98
2022-12-09T01:19:57.666Z,85.41
2022-12-09T01:22:25.121Z,84.87
2022-12-09T01:24:54.019Z,84.79
2022-12-09T01:27:21.796Z,86.74
2022-12-09T01:29:49.468Z,85.44
2022-12-09T01:32:17.681Z,85.84
2022-12-09T01:34:45.644Z,85.57
2022-12-09T01:37:13.140Z,84.28
2022-12-09T01:39:40.621Z,85.24
2022-12-09T01:42:19.869Z,85.99
2022-12-09T01:45:37.611Z,85.73
2022-12-09T01:48:11.237Z,84.62
2022-12-09T01:50:40.909Z,85.71
2022-12-09T01:53:08.647Z,85.66
2022-12-09T01:55:36.460Z,84.42
2022-12-09T01:58:06.503Z,87.16
2022-12-09T02:00:34.146Z,86.08
2022-12-09T02:03:02.827Z,84.78
2022-12-09T02:05:31.712Z,84.92
2022-12-09T02:07:59.428Z,84.86
2022-12-09T02:10:28.588Z,85.11
2022-12-09T02:13:06.937Z,85.45
2022-12-09T02:15:43.078Z,84.02
2022-12-09T02:18:17.620Z,85.80
2022-12-09T02:20:55.473Z,85.52
2022-12-09T02:23:28.015Z,86.71
2022-12-09T02:25:58.615Z,85.45
2022-12-09T02:28:45.950Z,85.23
2022-12-09T02:31:25.157Z,86.00
2022-12-09T02:34:07.521Z,85.97
2022-12-09T02:36:42.517Z,85.23
2022-12-09T02:39:11.098Z,85.62
2022-12-09T02:41:43.049Z,86.41
2022-12-09T02:44:16.587Z,86.99
2022-12-09T02:46:45.809Z,85.58
2022-12-09T02:49:15.873Z,84.69
2022-12-09T02:51:45.797Z,86.04
2022-12-09T02:54:16.563Z,86.12
2022-12-09T02:56:51.054Z,85.26
2022-12-09T02:59:18.604Z,85.00
2022-12-09T03:01:50.987Z,84.17
2022-12-09T03:04:23.415Z,85.25
2022-12-09T03:06:53.736Z,83.82
2022-12-09T03:09:25.178Z,86.81
2022-12-09T03:11:53.984Z,85.48
2022-12-09T03:14:28.295Z,85.44
2022-12-09T03:17:00.307Z,84.98
2022-12-09T03:19:33.784Z,84.51
2022-12-09T03:22:04.145Z,84.14
2022-12-09T03:24:37.524Z,84.85
2022-12-09T03:27:09.905Z,84.89
2022-12-09T03:29:42.650Z,84.76
2022-12-09T03:32:12.649Z,84.65
2022-12-09T03:34:46.013Z,84.55
2022-12-09T03:37:18.930Z,82.87
2022-12-09T03:39:48.258Z,85.19
2022-12-09T03:42:20.113Z,85.68
2022-12-09T03:44:52.945Z,84.68
2022-12-09T03:47:20.631Z,85.28
2022-12-09T03:49:49.564Z,84.72
2022-12-09T03:52:21.782Z,84.13
2022-12-09T03:54:54.646Z,83.66
2022-12-09T03:57:23.448Z,83.14
2022-12-09T03:59:55.299Z,83.42
2022-12-09T04:02:23.637Z,83.92
2022-12-09T04:04:53.266Z,83.35
2022-12-09T04:07:20.955Z,84.11
2022-12-09T04:09:48.445Z,83.45
2022-12-09T04:12:15.896Z,84.33
2022-12-09T04:14:43.344Z,86.64
2022-12-09T04:17:12.197Z,84.75
2022-12-09T04:19:39.755Z,83.97
2022-12-09T04:22:08.547Z,84.49
2022-12-09T04:24:36.258Z,85.74
2022-12-09T04:27:03.781Z,84.63
2022-12-09T04:29:31.390Z,85.45
2022-12-09T04:31:59.027Z,84.94
2022-12-09T04:34:26.563Z,84.30
2022-12-09T04:36:54.238Z,84.46
2022-12-09T04:39:23.432Z,82.93
2022-12-09T04:41:50.970Z,84.64
2022-12-09T04:44:18.742Z,85.35
2022-12-09T04:46:46.261Z,85.29
2022-12-09T04:49:14.041Z,84.53
2022-12-09T04:51:42.238Z,84.26
2022-12-09T04:54:13.688Z,85.08
2022-12-09T04:56:43.136Z,84.17
2022-12-09T04:59:11.068Z,84.58
2022-12-09T05:01:38.725Z,85.47
2022-12-09T05:04:06.727Z,84.70
2022-12-09T05:06:35.317Z,85.15
2022-12-09T05:09:03.784Z,86.28
2022-12-09T05:11:32.185Z,84.48
2022-12-09T05:14:01.246Z,85.78
2022-12-09T05:16:28.932Z,84.85
2022-12-09T05:18:57.017Z,85.29
2022-12-09T05:21:24.820Z,85.86
2022-12-09T05:23:52.863Z,86.29
2022-12-09T05:26:23.077Z,86.70
2022-12-09T05:28:51.621Z,85.34
2022-12-09T05:31:23.757Z,85.51
2022-12-09T05:33:52.836Z,85.21
2022-12-09T05:36:24.291Z,85.23
2022-12-09T05:38:52.764Z,84.27
2022-12-09T05:41:21.019Z,85.16
2022-12-09T05:43:48.956Z,85.73
2022-12-09T05:46:16.915Z,85.29
2022-12-09T05:48:46.341Z,84.86
2022-12-09T05:51:17.947Z,86.65
2022-12-09T05:53:45.674Z,86.40
2022-12-09T05:56:16.272Z,87.23
2022-12-09T05:58:43.892Z,86.14
2022-12-09T06:01:11.944Z,87.06
2022-12-09T06:03:39.773Z,86.61
2022-12-09T06:06:10.488Z,86.34
2022-12-09T06:08:39.307Z,87.78
2022-12-09T06:11:12.221Z,86.39
2022-12-09T06:13:40.849Z,86.44
2022-12-09T06:16:09.938Z,86.27
2022-12-09T06:18:38.569Z,85.07
2022-12-09T06:21:07.516Z,86.70
2022-12-09T06:23:38.443Z,85.81
2022-12-09T06:26:06.476Z,85.73
2022-12-09T06:28:35.327Z,85.55
2022-12-09T06:31:02.978Z,86.47
2022-12-09T06:33:54.180Z,86.87
2022-12-09T06:36:18.555Z,86.84
2022-12-09T06:38:47.787Z,86.37
2022-12-09T06:41:17.067Z,85.01
2022-12-09T06:43:44.758Z,84.07
2022-12-09T06:46:13.843Z,85.05
2022-12-09T06:48:41.876Z,86.02
2022-12-09T06:51:09.716Z,85.65
2022-12-09T06:53:37.389Z,86.19
2022-12-09T06:56:12.075Z,86.27
2022-12-09T06:58:41.501Z,86.48
2022-12-09T07:01:13.858Z,85.57
2022-12-09T07:03:42.745Z,86.60
2022-12-09T07:06:21.076Z,86.89
2022-12-09T07:08:49.255Z,86.07
2022-12-09T07:11:18.472Z,85.84
2022-12-09T07:13:46.103Z,86.13
2022-12-09T07:16:14.098Z,85.10
2022-12-09T07:18:42.203Z,85.26
2022-12-09T07:21:11.288Z,85.04
2022-12-09T07:23:40.220Z,85.54
2022-12-09T07:26:08.346Z,84.46
2022-12-09T07:28:39.989Z,84.88
2022-12-09T07:31:07.789Z,85.11
2022-12-09T07:33:35.367Z,84.39
2022-12-09T07:36:03.819Z,85.49
2022-12-09T07:38:31.600Z,87.09
2022-12-09T07:41:05.717Z,86.56
2022-12-09T07:43:34.182Z,88.18
2022-12-09T07:46:06.783Z,86.12
2022-12-09T07:48:35.196Z,85.65
2022-12-09T07:51:03.563Z,84.94
2022-12-09T07:53:31.478Z,84.66
2022-12-09T07:56:03.407Z,87.50
2022-12-09T07:58:31.407Z,85.66
2022-12-09T08:00:59.102Z,85.47
2022-12-09T08:03:28.259Z,85.78
2022-12-09T08:05:56.036Z,84.42
2022-12-09T08:08:24.332Z,85.32
2022-12-09T08:10:52.431Z,84.74
2022-12-09T08:13:21.133Z,85.39
2022-12-09T08:15:48.907Z,84.42
2022-12-09T08:18:16.562Z,84.58
2022-12-09T08:20:45.572Z,85.06
2022-12-09T08:23:13.634Z,84.87
2022-12-09T08:25:41.142Z,84.64
2022-12-09T08:28:09.521Z,84.56
2022-12-09T08:30:37.786Z,85.11
2022-12-09T08:33:05.792Z,85.50
2022-12-09T08:35:33.318Z,84.93
2022-12-09T08:38:02.911Z,84.98
2022-12-09T08:40:31.006Z,84.60
2022-12-09T08:42:58.721Z,84.03
2022-12-09T08:45:26.831Z,84.41
2022-12-09T08:47:54.844Z,84.05
2022-12-09T08:50:22.674Z,84.00
2022-12-09T08:52:50.618Z,85.27
2022-12-09T08:55:19.648Z,84.92
2022-12-09T08:57:47.180Z,83.05
2022-12-09T09:00:16.053Z,85.86
2022-12-09T09:02:44.019Z,84.77
2022-12-09T09:05:12.463Z,85.97
2022-12-09T09:07:40.781Z,87.58
2022-12-09T09:10:10.067Z,86.38
2022-12-09T09:12:43.492Z,84.70
2022-12-09T09:15:12.883Z,85.21
2022-12-09T09:17:42.773Z,84.78
2022-12-09T09:20:13.584Z,89.44
2022-12-09T09:22:41.715Z,96.55
2022-12-09T09:25:10.752Z,88.91
2022-12-09T09:27:39.756Z,91.42
2022-12-09T09:30:09.563Z,87.61
2022-12-09T09:32:38.034Z,90.60
2022-12-09T09:35:06.409Z,89.94
2022-12-09T09:37:34.319Z,89.67
2022-12-09T09:40:01.792Z,93.08
2022-12-09T09:42:35.258Z,93.37
2022-12-09T09:45:12.730Z,95.33
2022-12-09T09:47:44.214Z,90.65
2022-12-09T09:50:26.345Z,90.23
2022-12-09T09:52:56.174Z,87.64
2022-12-09T09:55:31.109Z,88.34
2022-12-09T09:58:07.313Z,87.34
2022-12-09T10:00:47.034Z,88.46
2022-12-09T10:03:21.832Z,87.59
2022-12-09T10:05:54.072Z,87.77
2022-12-09T10:08:37.665Z,85.06
2022-12-09T10:11:15.924Z,83.95
2022-12-09T10:13:53.655Z,84.60
2022-12-09T10:16:25.962Z,88.31
2022-12-09T10:19:08.174Z,89.40
2022-12-09T10:21:42.822Z,86.61
2022-12-09T10:24:20.118Z,84.86
2022-12-09T10:26:57.864Z,83.37
2022-12-09T10:29:36.287Z,82.62
2022-12-09T10:32:05.874Z,83.32
2022-12-09T10:34:33.878Z,84.22
2022-12-09T10:37:01.780Z,82.96
2022-12-09T10:39:29.278Z,81.78
2022-12-09T10:42:16.856Z,84.13
2022-12-09T10:44:44.489Z,84.26
2022-12-09T10:47:26.391Z,82.86
2022-12-09T10:49:56.473Z,83.89
2022-12-09T10:52:27.061Z,83.07
2022-12-09T10:54:55.191Z,83.46
2022-12-09T10:57:25.879Z,84.96
2022-12-09T11:00:01.772Z,82.56
2022-12-09T11:02:33.913Z,83.91
2022-12-09T11:05:24.292Z,81.99
2022-12-09T11:07:54.285Z,81.84
2022-12-09T11:10:24.896Z,81.87
2022-12-09T11:12:55.387Z,81.12
2022-12-09T11:15:28.125Z,82.32
2022-12-09T11:18:00.708Z,82.97
2022-12-09T11:20:30.660Z,81.66
2022-12-09T11:23:05.368Z,81.17
2022-12-09T11:25:35.248Z,80.59
2022-12-09T11:28:06.068Z,79.64
2022-12-09T11:30:40.641Z,80.75
2022-12-09T11:33:26.625Z,80.13
2022-12-09T11:35:59.030Z,79.77
2022-12-09T11:38:36.920Z,78.99
2022-12-09T11:41:14.073Z,80.54
2022-12-09T11:43:45.113Z,86.48
2022-12-09T11:46:25.394Z,83.06
2022-12-09T11:48:59.989Z,82.41
2022-12-09T11:51:31.119Z,83.88
2022-12-09T11:54:04.212Z,82.06
2022-12-09T11:56:33.412Z,82.36
2022-12-09T11:59:04.163Z,84.30
2022-12-09T12:01:42.377Z,84.89
2022-12-09T12:04:14.184Z,81.66
2022-12-09T12:06:45.421Z,83.30
2022-12-09T12:09:17.959Z,85.22
2022-12-09T12:12:03.461Z,82.41
2022-12-09T12:14:31.616Z,87.06
2022-12-09T12:17:09.288Z,83.16
2022-12-09T12:19:40.510Z,81.52
2022-12-09T12:22:21.424Z,80.67
2022-12-09T12:25:17.482Z,82.90
2022-12-09T12:27:59.473Z,83.44
2022-12-09T12:30:35.998Z,80.23
2022-12-09T12:36:13.296Z,85.48
2022-12-09T12:38:55.687Z,85.55
2022-12-09T12:41:29.849Z,82.02
2022-12-09T12:44:25.371Z,81.04
2022-12-09T12:47:03.239Z,78.73
2022-12-09T12:49:43.420Z,81.25
2022-12-09T12:52:54.427Z,85.23
2022-12-09T12:55:26.848Z,88.40
2022-12-09T12:58:05.993Z,88.16
2022-12-09T13:00:41.990Z,82.80
2022-12-09T13:03:25.435Z,83.58
2022-12-09T13:05:56.172Z,82.22
2022-12-09T13:08:29.353Z,85.19
2022-12-09T13:10:59.116Z,87.03
2022-12-09T13:13:30.621Z,89.92
2022-12-09T13:16:03.585Z,90.11
2022-12-09T13:18:35.875Z,90.73
2022-12-09T13:21:05.434Z,85.03
2022-12-09T13:23:50.120Z,85.42
2022-12-09T13:26:27.925Z,85.88
2022-12-09T13:29:02.683Z,83.23
2022-12-09T13:31:31.922Z,85.03
2022-12-09T13:34:13.864Z,83.19
2022-12-09T13:36:45.624Z,86.65
2022-12-09T13:39:52.721Z,85.20
2022-12-09T13:43:01.332Z,87.46
2022-12-09T13:45:34.195Z,91.46
2022-12-09T13:48:09.553Z,89.50
2022-12-09T13:50:42.486Z,90.58
2022-12-09T13:53:26.138Z,91.18
2022-12-09T13:55:57.152Z,92.60
2022-12-09T13:58:41.522Z,92.50
2022-12-09T14:01:19.248Z,88.56
2022-12-09T14:03:53.720Z,85.80
2022-12-09T14:06:25.664Z,87.61
2022-12-09T14:08:56.327Z,89.02
2022-12-09T14:11:47.068Z,88.82
2022-12-09T14:14:51.355Z,88.34
2022-12-09T14:17:41.415Z,84.61
2022-12-09T14:20:21.138Z,85.94
2022-12-09T14:23:19.231Z,88.04
2022-12-09T14:26:09.171Z,92.50
2022-12-09T14:28:55.515Z,90.90
2022-12-09T14:31:57.805Z,89.24
2022-12-09T14:34:32.991Z,95.78
2022-12-09T14:37:15.948Z,94.44
2022-12-09T14:39:48.540Z,90.97
2022-12-09T14:42:27.753Z,92.78
2022-12-09T14:45:04.668Z,94.29
2022-12-09T14:47:35.101Z,93.89
2022-12-09T14:50:10.289Z,96.47
2022-12-09T14:52:37.966Z,93.18
2022-12-09T14:55:09.054Z,91.54
2022-12-09T14:57:41.512Z,94.61
2022-12-09T15:00:27.577Z,94.76
2022-12-09T15:03:30.763Z,93.45
2022-12-09T15:05:54.736Z,94.37
2022-12-09T15:08:33.555Z,96.85
2022-12-09T15:11:05.419Z,94.32
2022-12-09T15:13:34.502Z,92.98
2022-12-09T15:16:03.375Z,91.24
2022-12-09T15:18:31.526Z,94.79
2022-12-09T15:21:01.323Z,95.43
2022-12-09T15:23:32.676Z,94.71
2022-12-09T15:26:01.818Z,94.45
2022-12-09T15:28:30.944Z,96.79
2022-12-09T15:31:01.152Z,93.97
2022-12-09T15:33:33.076Z,97.35
2022-12-09T15:36:03.617Z,94.18
2022-12-09T15:38:40.954Z,94.01
2022-12-09T15:41:27.951Z,90.10
2022-12-09T15:43:58.471Z,94.87
2022-12-09T15:46:27.412Z,95.22
2022-12-09T15:48:58.606Z,97.08
2022-12-09T15:51:27.346Z,94.77
2022-12-09T15:53:58.142Z,92.20
2022-12-09T15:56:31.091Z,94.36
2022-12-09T15:59:02.285Z,92.98
2022-12-09T16:01:32.896Z,93.62
2022-12-09T16:04:03.512Z,96.85
2022-12-09T16:06:34.006Z,96.41
2022-12-09T16:09:02.613Z,96.90
2022-12-09T16:11:37.945Z,96.42
2022-12-09T16:14:06.015Z,96.92
2022-12-09T16:16:41.690Z,98.27
2022-12-09T16:22:06.331Z,94.63
2022-12-09T16:24:57.891Z,95.44
2022-12-09T16:27:25.484Z,94.10
2022-12-09T16:29:55.062Z,93.75
2022-12-09T16:32:28.215Z,94.81
2022-12-09T16:34:57.624Z,93.58
2022-12-09T16:37:31.256Z,94.76
2022-12-09T16:39:59.480Z,94.79
2022-12-09T16:42:33.259Z,92.81
2022-12-09T16:45:22.719Z,90.77
2022-12-09T16:47:53.948Z,87.80
2022-12-09T16:50:21.682Z,86.61
2022-12-09T16:52:50.592Z,88.01
2022-12-09T16:55:21.898Z,91.53
2022-12-09T16:57:49.775Z,93.13
2022-12-09T17:00:18.814Z,92.97
2022-12-09T17:02:49.419Z,92.25
2022-12-09T17:05:17.205Z,90.90
2022-12-09T17:07:44.925Z,87.77
2022-12-09T17:10:16.197Z,85.92
2022-12-09T17:12:43.920Z,83.33
2022-12-09T17:15:15.337Z,85.77
2022-12-09T17:17:48.293Z,88.41
2022-12-09T17:20:16.409Z,89.59
2022-12-09T17:22:44.307Z,88.27
2022-12-09T17:25:11.761Z,88.66
2022-12-09T17:27:41.858Z,88.88
2022-12-09T17:30:10.579Z,88.68
2022-12-09T17:32:38.440Z,88.77
2022-12-09T17:35:12.380Z,92.17
2022-12-09T17:37:40.397Z,93.67
2022-12-09T17:40:08.667Z,94.05
2022-12-09T17:42:36.669Z,92.62
2022-12-09T17:45:06.674Z,92.86
2022-12-09T17:47:34.568Z,92.95
2022-12-09T17:50:02.069Z,95.16
2022-12-09T17:52:29.580Z,95.74
2022-12-09T17:54:57.019Z,95.99
2022-12-09T17:57:24.431Z,95.15
2022-12-09T17:59:52.022Z,94.74
2022-12-09T18:02:20.846Z,90.68
2022-12-09T18:04:48.405Z,94.38
2022-12-09T18:07:15.879Z,96.45
2022-12-09T18:09:43.318Z,96.30
2022-12-09T18:12:10.792Z,98.80
2022-12-09T18:14:38.197Z,95.47
2022-12-09T18:17:05.738Z,92.83
2022-12-09T18:19:35.310Z,91.82
2022-12-09T18:22:03.218Z,95.64
2022-12-09T18:24:30.776Z,95.84
2022-12-09T18:26:58.869Z,96.64
2022-12-09T18:29:27.129Z,96.77
2022-12-09T18:31:56.672Z,97.98
2022-12-09T18:34:24.640Z,98.18
2022-12-09T18:36:53.603Z,94.22
2022-12-09T18:39:21.743Z,92.65
2022-12-09T18:41:49.237Z,92.31
2022-12-09T18:44:17.114Z,94.91
2022-12-09T18:46:46.333Z,97.96
2022-12-09T18:49:15.883Z,98.17
2022-12-09T18:51:45.509Z,96.14
2022-12-09T18:54:17.192Z,97.30
2022-12-09T18:56:45.317Z,97.35
2022-12-09T18:59:13.423Z,93.56
2022-12-09T19:01:43.213Z,91.39
2022-12-09T19:04:14.883Z,92.87
2022-12-09T19:06:44.674Z,91.42
2022-12-09T19:09:16.053Z,92.34
2022-12-09T19:11:44.959Z,94.49
2022-12-09T19:14:14.035Z,95.33
2022-12-09T19:16:42.965Z,98.63
2022-12-09T19:19:12.893Z,99.50
2022-12-09T19:21:40.786Z,98.98
2022-12-09T19:24:12.325Z,97.19
2022-12-09T19:26:42.649Z,95.94
2022-12-09T19:29:11.339Z,98.25
2022-12-09T19:31:40.815Z,99.91
2022-12-09T19:34:11.748Z,100.00
2022-12-09T19:36:39.495Z,98.45
2022-12-09T19:39:09.227Z,98.33
2022-12-09T19:41:37.661Z,96.34
2022-12-09T19:44:07.035Z,97.01
2022-12-09T19:46:34.832Z,98.19
2022-12-09T19:49:02.597Z,98.46
2022-12-09T19:51:30.174Z,97.06
2022-12-09T19:54:00.084Z,94.13
2022-12-09T19:56:27.819Z,92.88
2022-12-09T19:58:56.009Z,91.71
2022-12-09T20:01:26.911Z,88.93
2022-12-09T20:03:58.142Z,89.63
2022-12-09T20:06:26.354Z,94.71
2022-12-09T20:08:54.247Z,96.84
2022-12-09T20:11:23.827Z,96.79
2022-12-09T20:13:52.795Z,97.37
2022-12-09T20:16:22.406Z,96.39
2022-12-09T20:18:52.444Z,96.03
2022-12-09T20:21:21.453Z,94.78
2022-12-09T20:23:49.816Z,93.03
2022-12-09T20:26:21.051Z,96.34
2022-12-09T20:28:50.327Z,96.28
2022-12-09T20:31:21.023Z,95.06
2022-12-09T20:33:49.248Z,95.32
2022-12-09T20:36:20.949Z,96.90
2022-12-09T20:38:50.352Z,96.44
2022-12-09T20:41:17.876Z,94.39
2022-12-09T20:43:49.327Z,96.76
2022-12-09T20:46:18.479Z,92.74
2022-12-09T20:48:47.322Z,93.25
2022-12-09T20:51:17.342Z,95.66
2022-12-09T20:53:48.039Z,93.67
2022-12-09T20:56:16.692Z,95.09
2022-12-09T20:58:45.641Z,95.94
2022-12-09T21:01:15.104Z,96.77
2022-12-09T21:03:43.791Z,97.29
2022-12-09T21:06:12.372Z,97.23
2022-12-09T21:08:40.323Z,96.39
2022-12-09T21:11:11.038Z,95.35
2022-12-09T21:13:40.176Z,94.83
2022-12-09T21:16:09.850Z,93.21
2022-12-09T21:18:37.646Z,94.60
2022-12-09T21:21:06.424Z,94.47
2022-12-09T21:23:36.281Z,93.27
2022-12-09T21:26:06.136Z,94.63
2022-12-09T21:28:35.491Z,93.80
2022-12-09T21:31:08.497Z,95.36
2022-12-09T21:33:36.798Z,91.94
2022-12-09T21:36:06.682Z,92.93
2022-12-09T21:38:34.784Z,95.85
2022-12-09T21:41:04.679Z,94.83
2022-12-09T21:43:36.068Z,92.19
2022-12-09T21:46:04.025Z,92.18
2022-12-09T21:48:31.966Z,90.04
2022-12-09T21:51:01.274Z,90.51
2022-12-09T21:53:29.844Z,92.23
2022-12-09T21:56:02.721Z,92.35
2022-12-09T21:58:31.731Z,94.38
2022-12-09T22:01:01.990Z,91.42
2022-12-09T22:03:29.540Z,90.56
2022-12-09T22:05:59.989Z,88.39
2022-12-09T22:08:28.094Z,92.39
2022-12-09T22:10:58.313Z,90.35
2022-12-09T22:13:28.119Z,94.35
2022-12-09T22:15:55.595Z,94.60
2022-12-09T22:18:24.542Z,94.57
2022-12-09T22:21:23.635Z,92.54
2022-12-09T22:23:40.029Z,91.09
2022-12-09T22:26:08.122Z,90.50
2022-12-09T22:28:36.380Z,89.19
2022-12-09T22:31:09.896Z,90.15
2022-12-09T22:33:39.102Z,89.76
2022-12-09T22:36:08.583Z,91.89
2022-12-09T22:38:38.011Z,92.47
2022-12-09T22:41:07.534Z,92.32
2022-12-09T22:43:38.218Z,93.17
2022-12-09T22:46:07.384Z,91.10
2022-12-09T22:48:36.049Z,89.78
2022-12-09T22:51:06.395Z,87.73
2022-12-09T22:53:34.159Z,89.16
2022-12-09T22:56:01.709Z,86.63
2022-12-09T22:58:29.133Z,88.34
2022-12-09T23:00:56.897Z,90.09
2022-12-09T23:03:24.819Z,88.31
2022-12-09T23:05:52.436Z,90.85
2022-12-09T23:08:22.398Z,92.64
2022-12-09T23:10:50.254Z,94.31
2022-12-09T23:13:18.085Z,93.35
2022-12-09T23:15:45.711Z,87.83
2022-12-09T23:18:13.240Z,89.44
2022-12-09T23:20:40.778Z,90.90
2022-12-09T23:23:08.180Z,87.76
2022-12-09T23:25:46.721Z,90.53
2022-12-09T23:28:14.124Z,89.69
2022-12-09T23:30:41.645Z,87.59
2022-12-09T23:33:09.083Z,89.51
2022-12-09T23:35:39.327Z,88.65
2022-12-09T23:38:06.760Z,89.57
2022-12-09T23:40:34.168Z,86.83
2022-12-09T23:43:02.928Z,88.07
2022-12-09T23:45:30.326Z,88.81
2022-12-09T23:47:57.740Z,86.15
2022-12-09T23:50:25.687Z,86.03
2022-12-09T23:52:53.091Z,87.81
2022-12-09T23:55:20.527Z,88.16
2022-12-09T23:57:50.123Z,91.27
